Hartford, Connecticut
Current Conditions -  °F | °C
As of 7:04 AM on Monday 22 Dec 2014 (Local Time) from KHFD Reporting Station
Overcast Overcast  
Wind Chill: -2°   Ceiling: 1400
Heat Index:   Visibility: 10mi
Dew Point: -1°   Wind: 6mph
Humidity: 85%   Direction: NA
Pressure: 30.36"   Gusts: NA
Location:  41.76°N, 72.67°W
Report Text: KHFD 221204Z VRB05KT 10SM OVC014 01/M01 A3036 RMK AO2 T00111011
Loading
Personal Weather Stations






























Interactive Weather Map New forecast layout! Learn more

10-Day Weather Forecast

Advertisements
Track Severe Weather on mobile